createdAt,value
2022-10-23T00:00:17.581Z,97754.44
2022-10-23T00:02:51.362Z,97760.56
2022-10-23T00:05:18.160Z,97753.94
2022-10-23T00:07:44.761Z,97757.06
2022-10-23T00:10:11.456Z,97750.44
2022-10-23T00:12:38.039Z,97750.69
2022-10-23T00:15:05.289Z,97752.69
2022-10-23T00:17:31.868Z,97762.06
2022-10-23T00:19:59.751Z,97763.72
2022-10-23T00:22:26.424Z,97765.88
2022-10-23T00:24:53.237Z,97771.97
2022-10-23T00:27:19.813Z,97768.88
2022-10-23T00:29:46.379Z,97764.69
2022-10-23T00:32:12.975Z,97765.56
2022-10-23T00:34:39.562Z,97763.31
2022-10-23T00:37:07.524Z,97756.13
2022-10-23T00:39:34.432Z,97758.59
2022-10-23T00:42:01.000Z,97766.31
2022-10-23T00:45:05.073Z,97767.19
2022-10-23T00:47:31.678Z,97764.72
2022-10-23T00:49:58.266Z,97766.16
2022-10-23T00:52:26.229Z,97758.16
2022-10-23T00:54:52.818Z,97764.75
2022-10-23T00:57:19.647Z,97766.28
2022-10-23T00:59:46.252Z,97767.91
2022-10-23T01:02:13.168Z,97765.47
2022-10-23T01:04:39.794Z,97771.00
2022-10-23T01:07:14.789Z,97768.03
2022-10-23T01:09:48.335Z,97772.50
2022-10-23T01:12:23.625Z,97769.44
2022-10-23T01:14:58.551Z,97778.13
2022-10-23T01:17:35.027Z,97777.56
2022-10-23T01:20:14.179Z,97779.16
2022-10-23T01:23:09.454Z,97765.88
2022-10-23T01:25:56.000Z,97772.72
2022-10-23T01:28:29.442Z,97761.38
2022-10-23T01:30:58.212Z,97761.41
2022-10-23T01:33:31.111Z,97754.25
2022-10-23T01:36:01.941Z,97759.75
2022-10-23T01:38:35.795Z,97757.09
2022-10-23T01:41:07.317Z,97745.50
2022-10-23T01:43:40.683Z,97746.28
2022-10-23T01:46:10.850Z,97736.13
2022-10-23T01:48:38.071Z,97727.31
2022-10-23T01:51:07.640Z,97727.31
2022-10-23T01:53:39.082Z,97724.63
2022-10-23T01:56:08.812Z,97718.59
2022-10-23T01:58:39.515Z,97722.69
2022-10-23T02:01:07.685Z,97714.13
2022-10-23T02:03:37.304Z,97718.38
2022-10-23T02:06:04.399Z,97716.88
2022-10-23T02:08:31.283Z,97721.44
2022-10-23T02:11:04.047Z,97726.88
2022-10-23T02:13:34.560Z,97724.41
2022-10-23T02:16:10.768Z,97728.41
2022-10-23T02:18:46.153Z,97724.53
2022-10-23T02:21:17.355Z,97725.34
2022-10-23T02:23:52.500Z,97721.22
2022-10-23T02:26:25.703Z,97724.84
2022-10-23T02:28:58.705Z,97724.72
2022-10-23T02:31:26.723Z,97725.25
2022-10-23T02:33:53.272Z,97716.66
2022-10-23T02:36:20.167Z,97713.88
2022-10-23T02:38:46.822Z,97713.31
2022-10-23T02:41:22.714Z,97708.59
2022-10-23T02:44:02.198Z,97703.69
2022-10-23T02:46:39.765Z,97697.47
2022-10-23T02:49:12.352Z,97709.09
2022-10-23T02:51:50.947Z,97703.56
2022-10-23T02:54:27.525Z,97697.84
2022-10-23T02:57:02.359Z,97690.44
2022-10-23T02:59:37.194Z,97690.66
2022-10-23T03:02:15.700Z,97686.81
2022-10-23T03:04:44.044Z,97679.13
2022-10-23T03:07:12.369Z,97678.31
2022-10-23T03:09:38.983Z,97673.06
2022-10-23T03:12:05.826Z,97685.44
2022-10-23T03:14:32.381Z,97689.91
2022-10-23T03:16:58.946Z,97696.50
2022-10-23T03:19:26.827Z,97697.03
2022-10-23T03:21:53.420Z,97692.59
2022-10-23T03:24:19.964Z,97678.00
2022-10-23T03:26:46.551Z,97689.25
2022-10-23T03:29:13.128Z,97688.44
2022-10-23T03:31:39.710Z,97688.22
2022-10-23T03:34:08.178Z,97692.38
2022-10-23T03:36:36.839Z,97696.50
2022-10-23T03:39:03.617Z,97699.25
2022-10-23T03:41:30.208Z,97714.72
2022-10-23T03:43:56.819Z,97714.47
2022-10-23T03:46:23.846Z,97713.31
2022-10-23T03:48:50.426Z,97707.72
2022-10-23T03:51:16.993Z,97705.22
2022-10-23T03:53:44.871Z,97706.91
2022-10-23T03:56:11.499Z,97701.06
2022-10-23T03:58:38.029Z,97707.44
2022-10-23T04:01:04.602Z,97695.94
2022-10-23T04:03:31.252Z,97697.59
2022-10-23T04:05:57.791Z,97692.91
2022-10-23T04:08:24.461Z,97684.94
2022-10-23T04:10:52.377Z,97683.88
2022-10-23T04:13:18.925Z,97690.50
2022-10-23T04:15:48.993Z,97689.69
2022-10-23T04:18:15.667Z,97697.97
2022-10-23T04:20:42.202Z,97695.56
2022-10-23T04:23:08.765Z,97695.28
2022-10-23T04:25:35.361Z,97690.06
2022-10-23T04:28:03.323Z,97695.81
2022-10-23T04:30:29.861Z,97685.09
2022-10-23T04:32:56.410Z,97690.06
2022-10-23T04:35:22.973Z,97685.91
2022-10-23T04:37:49.518Z,97679.84
2022-10-23T04:40:16.218Z,97675.97
2022-10-23T04:42:43.049Z,97680.34
2022-10-23T04:45:11.529Z,97675.16
2022-10-23T04:47:38.079Z,97688.34
2022-10-23T04:50:05.760Z,97675.94
2022-10-23T04:52:32.311Z,97685.81
2022-10-23T04:54:58.827Z,97686.34
2022-10-23T04:57:25.387Z,97680.53
2022-10-23T04:59:51.921Z,97691.78
2022-10-23T05:02:19.825Z,97689.50
2022-10-23T05:04:46.369Z,97686.16
2022-10-23T05:07:12.956Z,97688.06
2022-10-23T05:09:39.570Z,97692.72
2022-10-23T05:12:06.218Z,97694.59
2022-10-23T05:14:32.750Z,97687.72
2022-10-23T05:17:02.820Z,97686.56
2022-10-23T05:19:39.572Z,97688.16
2022-10-23T05:22:06.589Z,97687.59
2022-10-23T05:24:33.164Z,97676.88
2022-10-23T05:26:59.764Z,97680.97
2022-10-23T05:29:26.329Z,97669.97
2022-10-23T05:32:00.956Z,97678.16
2022-10-23T05:34:32.959Z,97661.91
2022-10-23T05:36:59.533Z,97665.94
2022-10-23T05:39:26.571Z,97664.84
2022-10-23T05:41:53.136Z,97662.09
2022-10-23T05:44:19.673Z,97668.66
2022-10-23T05:46:46.274Z,97672.84
2022-10-23T05:49:13.040Z,97671.25
2022-10-23T05:51:41.208Z,97673.81
2022-10-23T05:54:08.812Z,97679.63
2022-10-23T05:56:35.981Z,97680.91
2022-10-23T05:59:02.583Z,97678.16
2022-10-23T06:01:29.314Z,97678.16
2022-10-23T06:03:56.508Z,97682.03
2022-10-23T06:06:23.062Z,97675.94
2022-10-23T06:08:50.968Z,97688.25
2022-10-23T06:11:17.520Z,97685.59
2022-10-23T06:13:45.700Z,97680.84
2022-10-23T06:16:13.946Z,97682.94
2022-10-23T06:18:40.935Z,97686.03
2022-10-23T06:21:07.712Z,97690.69
2022-10-23T06:23:36.789Z,97694.00
2022-10-23T06:26:05.847Z,97691.38
2022-10-23T06:28:32.771Z,97682.72
2022-10-23T06:30:59.380Z,97682.34
2022-10-23T06:33:25.933Z,97677.59
2022-10-23T06:35:55.766Z,97675.47
2022-10-23T06:38:22.327Z,97685.13
2022-10-23T06:40:53.156Z,97682.63
2022-10-23T06:43:21.134Z,97680.72
2022-10-23T06:45:47.801Z,97696.38
2022-10-23T06:48:14.868Z,97702.94
2022-10-23T06:50:41.644Z,97699.47
2022-10-23T06:53:08.193Z,97695.25
2022-10-23T06:55:34.908Z,97678.25
2022-10-23T06:58:01.530Z,97673.56
2022-10-23T07:00:29.569Z,97682.22
2022-10-23T07:02:56.300Z,97675.03
2022-10-23T07:05:22.862Z,97668.31
2022-10-23T07:07:49.395Z,97673.94
2022-10-23T07:10:15.938Z,97665.88
2022-10-23T07:12:42.740Z,97673.56
2022-10-23T07:15:09.763Z,97677.66
2022-10-23T07:17:37.690Z,97692.59
2022-10-23T07:20:04.925Z,97696.44
2022-10-23T07:22:31.489Z,97693.81
2022-10-23T07:24:58.026Z,97687.47
2022-10-23T07:27:24.888Z,97677.47
2022-10-23T07:29:51.969Z,97672.06
2022-10-23T07:32:19.120Z,97669.84
2022-10-23T07:34:46.981Z,97676.59
2022-10-23T07:37:13.547Z,97681.16
2022-10-23T07:39:40.075Z,97678.09
2022-10-23T07:42:06.652Z,97681.56
2022-10-23T07:44:33.192Z,97681.06
2022-10-23T07:46:59.749Z,97674.47
2022-10-23T07:49:26.264Z,97684.75
2022-10-23T07:51:54.245Z,97678.69
2022-10-23T07:54:20.830Z,97682.50
2022-10-23T07:56:47.394Z,97679.50
2022-10-23T07:59:14.392Z,97666.78
2022-10-23T08:01:42.028Z,97658.56
2022-10-23T08:04:10.401Z,97661.97
2022-10-23T08:06:36.971Z,97662.25
2022-10-23T08:09:06.671Z,97655.53
2022-10-23T08:11:34.096Z,97652.41
2022-10-23T08:14:01.981Z,97662.09
2022-10-23T08:16:28.534Z,97665.72
2022-10-23T08:18:55.074Z,97657.63
2022-10-23T08:21:21.799Z,97639.78
2022-10-23T08:23:48.382Z,97632.16
2022-10-23T08:26:16.399Z,97630.88
2022-10-23T08:28:42.927Z,97633.03
2022-10-23T08:31:11.444Z,97631.41
2022-10-23T08:33:38.717Z,97625.09
2022-10-23T08:36:06.400Z,97616.34
2022-10-23T08:38:32.968Z,97627.06
2022-10-23T08:40:59.600Z,97628.09
2022-10-23T08:43:34.387Z,97641.56
2022-10-23T08:46:07.344Z,97643.59
2022-10-23T08:48:42.662Z,97645.56
2022-10-23T08:51:16.150Z,97649.34
2022-10-23T08:53:50.293Z,97656.06
2022-10-23T08:56:24.481Z,97650.06
2022-10-23T08:58:57.698Z,97647.97
2022-10-23T09:01:34.782Z,97650.16
2022-10-23T09:04:02.424Z,97643.81
2022-10-23T09:06:36.637Z,97645.91
2022-10-23T09:09:19.192Z,97644.09
2022-10-23T09:11:54.237Z,97649.34
2022-10-23T09:14:51.700Z,97645.75
2022-10-23T09:17:24.248Z,97644.34
2022-10-23T09:19:55.574Z,97635.44
2022-10-23T09:22:22.152Z,97638.88
2022-10-23T09:24:53.010Z,97637.00
2022-10-23T09:27:20.630Z,97622.94
2022-10-23T09:29:50.336Z,97619.44
2022-10-23T09:32:17.526Z,97615.88
2022-10-23T09:34:52.424Z,97617.38
2022-10-23T09:37:23.304Z,97619.84
2022-10-23T09:40:01.312Z,97622.44
2022-10-23T09:42:28.007Z,97622.28
2022-10-23T09:44:56.055Z,97626.00
2022-10-23T09:47:24.630Z,97634.31
2022-10-23T09:49:52.562Z,97624.19
2022-10-23T09:52:25.610Z,97624.50
2022-10-23T09:54:55.291Z,97621.47
2022-10-23T09:57:28.170Z,97621.44
2022-10-23T09:59:59.499Z,97625.69
2022-10-23T10:02:28.455Z,97629.78
2022-10-23T10:04:55.075Z,97624.34
2022-10-23T10:07:23.685Z,97627.50
2022-10-23T10:09:52.084Z,97639.59
2022-10-23T10:12:37.966Z,97633.50
2022-10-23T10:15:17.724Z,97627.19
2022-10-23T10:17:53.547Z,97613.72
2022-10-23T10:20:46.395Z,97601.06
2022-10-23T10:23:22.390Z,97604.22
2022-10-23T10:26:00.058Z,97610.63
2022-10-23T10:28:48.581Z,97604.25
2022-10-23T10:31:23.457Z,97603.28
2022-10-23T10:34:02.751Z,97606.53
2022-10-23T10:36:41.864Z,97599.06
2022-10-23T10:39:18.546Z,97590.09
2022-10-23T10:41:59.697Z,97582.88
2022-10-23T10:44:41.409Z,97572.59
2022-10-23T10:47:17.144Z,97571.28
2022-10-23T10:49:58.600Z,97566.19
2022-10-23T10:52:32.630Z,97559.16
2022-10-23T10:55:05.389Z,97556.38
2022-10-23T10:57:34.552Z,97556.22
2022-10-23T11:00:05.339Z,97563.06
2022-10-23T11:02:38.310Z,97566.19
2022-10-23T11:05:14.100Z,97549.63
2022-10-23T11:07:46.951Z,97538.38
2022-10-23T11:10:16.403Z,97529.00
2022-10-23T11:12:44.924Z,97523.94
2022-10-23T11:15:15.893Z,97529.19
2022-10-23T11:17:48.389Z,97528.66
2022-10-23T11:20:41.106Z,97526.72
2022-10-23T11:23:27.951Z,97530.47
2022-10-23T11:26:07.711Z,97516.19
2022-10-23T11:28:51.920Z,97509.84
2022-10-23T11:31:29.144Z,97511.28
2022-10-23T11:34:25.149Z,97502.91
2022-10-23T11:36:54.135Z,97504.72
2022-10-23T11:39:24.433Z,97504.50
2022-10-23T11:41:55.888Z,97509.06
2022-10-23T11:44:27.358Z,97509.44
2022-10-23T11:47:02.778Z,97512.50
2022-10-23T11:49:30.827Z,97508.84
2022-10-23T11:52:01.430Z,97506.38
2022-10-23T11:54:28.024Z,97496.38
2022-10-23T11:57:08.068Z,97480.91
2022-10-23T11:59:51.105Z,97475.50
2022-10-23T12:02:26.031Z,97452.91
2022-10-23T12:04:55.353Z,97442.75
2022-10-23T12:07:24.443Z,97436.22
2022-10-23T12:09:57.147Z,97430.78
2022-10-23T12:12:30.009Z,97428.09
2022-10-23T12:15:21.420Z,97420.56
2022-10-23T12:17:49.542Z,97411.97
2022-10-23T12:20:25.527Z,97417.13
2022-10-23T12:23:12.456Z,97413.03
2022-10-23T12:25:54.291Z,97412.72
2022-10-23T12:28:33.525Z,97408.53
2022-10-23T12:31:16.477Z,97416.44
2022-10-23T12:33:50.919Z,97419.56
2022-10-23T12:36:34.384Z,97406.28
2022-10-23T12:39:00.949Z,97408.84
2022-10-23T12:41:29.749Z,97420.13
2022-10-23T12:43:58.565Z,97424.00
2022-10-23T12:46:31.388Z,97420.22
2022-10-23T12:48:58.979Z,97411.47
2022-10-23T12:51:28.924Z,97408.94
2022-10-23T12:53:55.593Z,97401.47
2022-10-23T12:56:23.960Z,97394.28
2022-10-23T12:58:53.255Z,97397.28
2022-10-23T13:01:26.021Z,97392.31
2022-10-23T13:03:57.444Z,97384.88
2022-10-23T13:06:24.874Z,97383.69
2022-10-23T13:08:53.703Z,97380.66
2022-10-23T13:11:21.681Z,97366.72
2022-10-23T13:13:48.820Z,97359.84
2022-10-23T13:16:16.593Z,97350.13
2022-10-23T13:18:43.230Z,97352.66
2022-10-23T13:21:17.893Z,97356.16
2022-10-23T13:23:44.489Z,97358.94
2022-10-23T13:26:31.621Z,97354.72
2022-10-23T13:28:59.279Z,97345.06
2022-10-23T13:31:29.766Z,97343.91
2022-10-23T13:34:19.609Z,97332.97
2022-10-23T13:36:58.090Z,97335.91
2022-10-23T13:39:26.608Z,97343.81
2022-10-23T13:41:54.544Z,97344.97
2022-10-23T13:44:23.123Z,97362.19
2022-10-23T13:46:50.103Z,97347.41
2022-10-23T13:49:16.668Z,97352.88
2022-10-23T13:51:46.084Z,97341.63
2022-10-23T13:54:15.421Z,97341.47
2022-10-23T13:56:42.399Z,97341.59
2022-10-23T13:59:11.371Z,97335.66
2022-10-23T14:01:38.497Z,97337.06
2022-10-23T14:04:06.016Z,97344.38
2022-10-23T14:06:33.368Z,97348.72
2022-10-23T14:08:59.923Z,97341.72
2022-10-23T14:11:26.512Z,97333.34
2022-10-23T14:13:53.054Z,97344.03
2022-10-23T14:16:21.020Z,97339.50
2022-10-23T14:18:47.897Z,97333.34
2022-10-23T14:21:16.932Z,97344.50
2022-10-23T14:23:43.556Z,97335.31
2022-10-23T14:26:12.243Z,97348.34
2022-10-23T14:28:39.327Z,97346.84
2022-10-23T14:31:07.249Z,97339.84
2022-10-23T14:33:35.201Z,97334.97
2022-10-23T14:36:01.884Z,97332.28
2022-10-23T14:38:28.572Z,97332.41
2022-10-23T14:40:55.184Z,97337.88
2022-10-23T14:43:22.010Z,97337.88
2022-10-23T14:45:48.582Z,97332.63
2022-10-23T14:48:15.485Z,97331.38
2022-10-23T14:50:46.164Z,97338.09
2022-10-23T14:53:13.068Z,97330.31
2022-10-23T14:55:39.645Z,97324.38
2022-10-23T14:58:06.554Z,97328.91
2022-10-23T15:00:33.349Z,97315.06
2022-10-23T15:03:00.092Z,97312.97
2022-10-23T15:05:26.653Z,97312.28
2022-10-23T15:07:54.915Z,97305.31
2022-10-23T15:10:21.508Z,97297.53
2022-10-23T15:12:48.088Z,97294.03
2022-10-23T15:15:14.656Z,97304.03
2022-10-23T15:17:41.238Z,97308.25
2022-10-23T15:20:08.471Z,97298.16
2022-10-23T15:22:35.045Z,97298.75
2022-10-23T15:25:03.010Z,97294.94
2022-10-23T15:27:29.616Z,97291.78
2022-10-23T15:29:56.157Z,97290.22
2022-10-23T15:32:22.741Z,97281.13
2022-10-23T15:34:49.336Z,97277.72
2022-10-23T15:37:15.883Z,97273.28
2022-10-23T15:39:42.806Z,97267.44
2022-10-23T15:42:11.013Z,97267.31
2022-10-23T15:44:39.740Z,97267.78
2022-10-23T15:47:06.295Z,97271.59
2022-10-23T15:49:32.882Z,97272.53
2022-10-23T15:51:59.617Z,97267.56
2022-10-23T15:54:29.262Z,97271.31
2022-10-23T15:56:58.676Z,97272.41
2022-10-23T15:59:27.021Z,97269.69
2022-10-23T16:01:54.048Z,97280.81
2022-10-23T16:04:21.328Z,97278.78
2022-10-23T16:06:48.261Z,97273.00
2022-10-23T16:09:15.574Z,97283.19
2022-10-23T16:11:43.419Z,97286.41
2022-10-23T16:14:12.777Z,97286.75
2022-10-23T16:16:40.718Z,97283.81
2022-10-23T16:19:07.348Z,97273.41
2022-10-23T16:21:36.093Z,97274.88
2022-10-23T16:24:05.679Z,97267.41
2022-10-23T16:26:32.592Z,97261.06
2022-10-23T16:29:01.626Z,97256.34
2022-10-23T16:31:28.803Z,97264.25
2022-10-23T16:33:59.469Z,97266.22
2022-10-23T16:36:26.650Z,97274.78
2022-10-23T16:38:53.206Z,97268.59
2022-10-23T16:41:19.773Z,97277.94
2022-10-23T16:43:46.306Z,97272.00
2022-10-23T16:46:14.671Z,97279.22
2022-10-23T16:48:41.614Z,97286.91
2022-10-23T16:51:11.958Z,97291.47
2022-10-23T16:53:39.394Z,97285.44
2022-10-23T16:56:08.650Z,97283.13
2022-10-23T16:58:35.431Z,97280.06
2022-10-23T17:01:04.826Z,97283.31
2022-10-23T17:03:34.612Z,97269.41
2022-10-23T17:06:01.731Z,97271.06
2022-10-23T17:08:30.399Z,97275.81
2022-10-23T17:11:05.113Z,97275.16
2022-10-23T17:13:31.764Z,97276.94
2022-10-23T17:16:04.225Z,97277.28
2022-10-23T17:18:30.757Z,97288.19
2022-10-23T17:20:57.376Z,97287.22
2022-10-23T17:23:23.928Z,97278.88
2022-10-23T17:25:51.881Z,97282.63
2022-10-23T17:28:18.456Z,97286.56
2022-10-23T17:30:45.096Z,97281.66
2022-10-23T17:33:11.763Z,97286.03
2022-10-23T17:35:38.390Z,97273.19
2022-10-23T17:38:05.404Z,97269.09
2022-10-23T17:40:32.413Z,97255.69
2022-10-23T17:43:00.614Z,97250.00
2022-10-23T17:45:27.342Z,97242.16
2022-10-23T17:47:53.895Z,97242.00
2022-10-23T17:50:20.471Z,97235.31
2022-10-23T17:52:47.078Z,97245.09
2022-10-23T17:55:13.676Z,97242.81
2022-10-23T17:57:40.464Z,97230.06
2022-10-23T18:00:09.701Z,97225.38
2022-10-23T18:02:36.321Z,97236.13
2022-10-23T18:05:02.991Z,97247.56
2022-10-23T18:07:29.769Z,97242.81
2022-10-23T18:09:56.349Z,97254.22
2022-10-23T18:12:22.916Z,97262.03
2022-10-23T18:14:49.486Z,97257.50
2022-10-23T18:17:17.392Z,97249.97
2022-10-23T18:19:43.933Z,97251.59
2022-10-23T18:22:10.562Z,97258.66
2022-10-23T18:24:37.114Z,97248.03
2022-10-23T18:27:03.870Z,97250.81
2022-10-23T18:29:30.541Z,97248.22
2022-10-23T18:31:57.102Z,97247.38
2022-10-23T18:34:25.281Z,97246.72
2022-10-23T18:36:54.577Z,97238.91
2022-10-23T18:39:23.694Z,97249.19
2022-10-23T18:41:52.697Z,97251.66
2022-10-23T18:44:21.033Z,97264.16
2022-10-23T18:46:49.074Z,97270.34
2022-10-23T18:49:17.680Z,97286.19
2022-10-23T18:51:46.844Z,97275.97
2022-10-23T18:54:16.025Z,97279.94
2022-10-23T18:56:43.504Z,97283.34
2022-10-23T18:59:13.321Z,97250.63
2022-10-23T19:01:40.084Z,97268.25
2022-10-23T19:04:06.907Z,97252.44
2022-10-23T19:06:35.906Z,97240.31
2022-10-23T19:09:06.817Z,97220.97
2022-10-23T19:11:33.864Z,97208.06
2022-10-23T19:14:00.420Z,97191.16
2022-10-23T19:16:30.579Z,97189.09
2022-10-23T19:18:59.918Z,97187.19
2022-10-23T19:21:30.273Z,97195.31
2022-10-23T19:23:57.914Z,97180.88
2022-10-23T19:26:26.560Z,97190.25
2022-10-23T19:31:25.789Z,97178.59
2022-10-23T19:33:52.446Z,97170.69
2022-10-23T19:36:22.392Z,97164.91
2022-10-23T19:38:49.885Z,97162.84
2022-10-23T19:41:16.512Z,97163.44
2022-10-23T19:43:44.602Z,97158.94
2022-10-23T19:46:12.346Z,97142.56
2022-10-23T19:48:39.958Z,97160.69
2022-10-23T19:51:08.007Z,97155.44
2022-10-23T19:53:34.531Z,97165.69
2022-10-23T19:56:02.143Z,97166.38
2022-10-23T19:58:28.694Z,97188.88
2022-10-23T20:00:56.627Z,97190.88
2022-10-23T20:03:23.317Z,97204.00
2022-10-23T20:05:49.932Z,97207.47
2022-10-23T20:08:16.499Z,97205.06
2022-10-23T20:10:44.258Z,97218.53
2022-10-23T20:13:21.463Z,97228.91
2022-10-23T20:15:48.286Z,97222.53
2022-10-23T20:18:16.186Z,97235.28
2022-10-23T20:20:42.761Z,97232.50
2022-10-23T20:23:09.454Z,97237.28
2022-10-23T20:25:36.085Z,97233.06
2022-10-23T20:28:03.123Z,97225.03
2022-10-23T20:30:29.700Z,97256.03
2022-10-23T20:32:56.449Z,97253.25
2022-10-23T20:35:24.444Z,97260.44
2022-10-23T20:37:50.981Z,97273.25
2022-10-23T20:40:17.545Z,97269.50
2022-10-23T20:42:44.143Z,97281.56
2022-10-23T20:45:10.910Z,97281.63
2022-10-23T20:47:37.479Z,97274.94
2022-10-23T20:50:04.667Z,97292.78
2022-10-23T20:55:04.478Z,97286.16
2022-10-23T20:57:31.106Z,97286.97
2022-10-23T20:59:57.787Z,97296.25
2022-10-23T21:02:24.395Z,97304.50
2022-10-23T21:04:51.058Z,97299.50
2022-10-23T21:07:17.642Z,97303.16
2022-10-23T21:09:45.808Z,97293.50
2022-10-23T21:12:12.451Z,97300.44
2022-10-23T21:14:39.074Z,97304.00
2022-10-23T21:17:06.207Z,97292.84
2022-10-23T21:19:32.757Z,97296.25
2022-10-23T21:21:59.326Z,97316.19
2022-10-23T21:24:26.059Z,97324.75
2022-10-23T21:26:54.110Z,97319.06
2022-10-23T21:29:20.967Z,97324.13
2022-10-23T21:31:52.204Z,97320.03
2022-10-23T21:34:18.746Z,97332.66
2022-10-23T21:37:07.558Z,97325.91
2022-10-23T21:39:31.861Z,97300.28
2022-10-23T21:42:00.102Z,97334.81
2022-10-23T21:44:26.789Z,97340.75
2022-10-23T21:46:53.402Z,97345.69
2022-10-23T21:49:19.983Z,97335.38
2022-10-23T21:51:46.550Z,97349.28
2022-10-23T21:54:14.385Z,97351.72
2022-10-23T21:56:43.694Z,97358.16
2022-10-23T21:59:13.006Z,97352.94
2022-10-23T22:01:41.073Z,97363.28
2022-10-23T22:04:07.795Z,97365.38
2022-10-23T22:06:34.350Z,97375.16
2022-10-23T22:09:00.945Z,97378.88
2022-10-23T22:11:27.942Z,97394.94
2022-10-23T22:13:55.486Z,97401.84
2022-10-23T22:16:23.454Z,97395.47
2022-10-23T22:18:50.014Z,97398.19
2022-10-23T22:21:18.991Z,97385.06
2022-10-23T22:23:45.918Z,97369.59
2022-10-23T22:26:20.223Z,97363.41
2022-10-23T22:28:46.781Z,97365.75
2022-10-23T22:31:14.779Z,97388.41
2022-10-23T22:33:43.005Z,97394.84
2022-10-23T22:36:09.684Z,97394.03
2022-10-23T22:38:36.275Z,97396.50
2022-10-23T22:41:04.058Z,97407.16
2022-10-23T22:43:30.693Z,97402.94
2022-10-23T22:46:02.213Z,97411.41
2022-10-23T22:48:28.755Z,97430.63
2022-10-23T22:50:56.678Z,97440.97
2022-10-23T22:53:23.249Z,97448.47
2022-10-23T22:55:49.830Z,97444.03
2022-10-23T22:58:16.362Z,97429.66
2022-10-23T23:00:43.694Z,97435.88
2022-10-23T23:03:10.427Z,97445.25
2022-10-23T23:08:10.387Z,97447.03
2022-10-23T23:10:37.213Z,97455.25
2022-10-23T23:13:04.074Z,97460.00
2022-10-23T23:15:30.812Z,97468.53
2022-10-23T23:17:57.373Z,97471.81
2022-10-23T23:20:23.918Z,97479.81
2022-10-23T23:22:50.560Z,97482.78
2022-10-23T23:25:18.569Z,97487.03
2022-10-23T23:27:46.540Z,97492.59
2022-10-23T23:30:13.270Z,97486.41
2022-10-23T23:32:39.832Z,97496.53
2022-10-23T23:35:06.624Z,97506.03
2022-10-23T23:37:33.191Z,97508.97
2022-10-23T23:39:59.771Z,97512.91
2022-10-23T23:42:27.682Z,97504.56
2022-10-23T23:45:02.857Z,97500.13
2022-10-23T23:47:40.452Z,97517.31
2022-10-23T23:50:09.627Z,97510.94
2022-10-23T23:52:36.192Z,97506.19
2022-10-23T23:55:02.831Z,97500.47
2022-10-23T23:57:30.759Z,97502.59
2022-10-23T23:59:57.469Z,97523.38
